Time;durP1;ratioP1;P1;durP2;ratioP2;P2;SDS_P1;SDS_P2;PMS_P1;PMS_P2;Temp;Humidity;BMP_temperature;BMP_pressure;BME280_temperature;BME280_humidity;BME280_pressure;Samples;Min_cycle;Max_cycle;Signal;HPM_P1;HPM_P2
2023/12/20 00:00:44;;;;;;;17.10;11.15;;;14.90;99.90;;;;;;4592926;19;20069;-76
2023/12/20 00:02:39;;;;;;;17.77;11.10;;;14.90;99.90;;;;;;4593012;19;20014;-76
2023/12/20 00:04:16;;;;;;;15.23;9.77;;;14.90;99.90;;;;;;4592851;19;20006;-76
2023/12/20 00:05:50;;;;;;;12.70;8.63;;;14.90;99.90;;;;;;4592061;19;20015;-76
2023/12/20 00:07:24;;;;;;;12.73;8.88;;;14.90;99.90;;;;;;4593039;19;20006;-76
2023/12/20 00:09:00;;;;;;;17.95;10.65;;;14.90;99.90;;;;;;4592715;19;20035;-76
2023/12/20 00:10:35;;;;;;;16.45;9.75;;;14.90;99.90;;;;;;4592941;19;20376;-76
2023/12/20 00:12:09;;;;;;;10.68;8.85;;;14.90;99.90;;;;;;4592870;19;20002;-76
2023/12/20 00:13:45;;;;;;;11.82;7.95;;;14.90;99.90;;;;;;4592714;19;20077;-76
2023/12/20 00:15:19;;;;;;;15.57;10.18;;;14.90;99.90;;;;;;4591518;19;20002;-76
2023/12/20 00:16:54;;;;;;;11.68;8.93;;;14.90;99.90;;;;;;4592701;19;20040;-76
2023/12/20 00:18:30;;;;;;;10.95;7.97;;;14.90;99.90;;;;;;4593095;19;20007;-76
2023/12/20 00:20:04;;;;;;;9.82;7.40;;;14.90;99.90;;;;;;4593022;19;20421;-76
2023/12/20 00:21:39;;;;;;;10.40;7.45;;;14.90;99.90;;;;;;4591654;19;20005;-76
2023/12/20 00:23:14;;;;;;;12.52;8.55;;;14.90;99.90;;;;;;4592373;19;20006;-76
2023/12/20 00:24:49;;;;;;;9.73;7.30;;;14.90;99.90;;;;;;4592782;19;20070;-76
2023/12/20 00:26:23;;;;;;;9.13;7.25;;;14.90;99.90;;;;;;4591921;19;20006;-75
2023/12/20 00:27:59;;;;;;;12.18;8.02;;;14.90;99.90;;;;;;4593307;19;20413;-75
2023/12/20 00:29:34;;;;;;;11.35;9.38;;;14.90;99.90;;;;;;4592170;19;20076;-76
2023/12/20 00:31:08;;;;;;;8.50;7.22;;;14.90;99.90;;;;;;4592492;19;20003;-76
2023/12/20 00:32:46;;;;;;;9.57;6.50;;;14.90;99.90;;;;;;4592985;19;20024;-75
2023/12/20 00:34:20;;;;;;;9.00;5.60;;;14.90;99.90;;;;;;4592542;19;20469;-76
2023/12/20 00:35:54;;;;;;;7.82;6.10;;;14.90;99.90;;;;;;4592003;19;20010;-76
2023/12/20 00:37:29;;;;;;;6.65;5.72;;;14.90;99.90;;;;;;4592507;19;20425;-75
2023/12/20 00:39:03;;;;;;;7.22;5.55;;;14.90;99.90;;;;;;4592402;19;20463;-76
2023/12/20 00:40:36;;;;;;;10.05;7.20;;;14.90;99.90;;;;;;4592631;19;19999;-76
2023/12/20 00:42:12;;;;;;;8.20;6.13;;;14.90;99.90;;;;;;4592677;19;19990;-75
2023/12/20 00:43:47;;;;;;;6.85;6.15;;;14.90;99.90;;;;;;4592208;19;20311;-76
2023/12/20 00:45:21;;;;;;;9.82;8.82;;;14.90;99.90;;;;;;4592232;19;19998;-76
2023/12/20 00:46:56;;;;;;;18.38;16.63;;;14.90;99.90;;;;;;4592291;19;20070;-76
2023/12/20 00:48:31;;;;;;;13.88;12.40;;;14.90;99.90;;;;;;4592219;19;20002;-76
2023/12/20 00:50:06;;;;;;;10.80;8.13;;;15.00;99.90;;;;;;4592066;19;20002;-75
2023/12/20 00:51:41;;;;;;;8.68;6.05;;;15.00;99.90;;;;;;4592275;19;20010;-76
2023/12/20 00:53:15;;;;;;;9.45;6.82;;;15.00;99.90;;;;;;4592144;19;20002;-76
2023/12/20 00:54:51;;;;;;;8.77;6.82;;;15.00;99.90;;;;;;4591016;19;20078;-76
2023/12/20 00:56:27;;;;;;;6.93;5.82;;;15.10;99.90;;;;;;4589703;19;20020;-76
2023/12/20 00:58:02;;;;;;;9.80;6.95;;;15.10;99.90;;;;;;4591780;19;20006;-76
2023/12/20 00:59:36;;;;;;;27.90;14.18;;;15.10;99.90;;;;;;4592019;19;20003;-76
2023/12/20 01:17:56;;;;;;;7.05;5.57;;;15.20;99.90;;;;;;4582035;19;20110;-76
2023/12/20 01:19:31;;;;;;;6.40;5.50;;;15.20;99.90;;;;;;4590519;19;20082;-76
2023/12/20 01:21:06;;;;;;;6.85;5.80;;;15.20;99.90;;;;;;4591260;19;20315;-76
2023/12/20 01:22:40;;;;;;;6.30;5.30;;;15.20;99.90;;;;;;4590395;19;20003;-76
2023/12/20 01:24:29;;;;;;;6.05;5.45;;;15.20;99.90;;;;;;4591687;19;20002;-76
2023/12/20 01:26:04;;;;;;;7.68;6.05;;;15.10;99.90;;;;;;4590181;19;20033;-76
2023/12/20 01:27:38;;;;;;;6.57;5.90;;;15.10;99.90;;;;;;4590387;19;20028;-76
2023/12/20 01:29:15;;;;;;;6.25;5.28;;;15.10;99.90;;;;;;4591630;19;20303;-76
2023/12/20 01:30:49;;;;;;;6.55;5.82;;;15.10;99.90;;;;;;4591582;19;20025;-76
2023/12/20 01:32:24;;;;;;;5.70;5.18;;;15.10;99.90;;;;;;4591502;19;20017;-76
2023/12/20 01:34:01;;;;;;;6.95;5.25;;;15.10;99.90;;;;;;4591594;19;20010;-76
2023/12/20 01:35:36;;;;;;;5.78;5.22;;;15.10;99.90;;;;;;4590163;19;20010;-76
2023/12/20 01:37:10;;;;;;;5.93;5.10;;;15.10;99.90;;;;;;4590591;19;20006;-76
2023/12/20 01:38:45;;;;;;;6.95;5.95;;;15.10;99.90;;;;;;4590568;19;20013;-76
2023/12/20 01:40:19;;;;;;;6.47;5.88;;;15.10;99.90;;;;;;4591085;19;20015;-76
2023/12/20 01:41:55;;;;;;;6.55;5.95;;;15.10;99.90;;;;;;4594758;19;20058;-76
2023/12/20 01:43:30;;;;;;;7.15;6.43;;;15.10;99.90;;;;;;4596063;19;20066;-76
2023/12/20 01:45:06;;;;;;;6.75;6.05;;;15.10;99.90;;;;;;4595985;19;19998;-76
2023/12/20 01:46:41;;;;;;;12.43;8.50;;;15.10;99.90;;;;;;4595935;19;20005;-76
2023/12/20 01:48:16;;;;;;;7.70;6.30;;;15.10;99.90;;;;;;4596336;19;20425;-77
2023/12/20 01:49:51;;;;;;;9.20;6.80;;;15.10;99.90;;;;;;4596085;19;20020;-77
2023/12/20 01:51:27;;;;;;;7.55;5.70;;;15.10;99.90;;;;;;4594459;19;20018;-77
2023/12/20 01:53:02;;;;;;;8.13;5.57;;;15.10;99.90;;;;;;4595511;19;20021;-77
2023/12/20 01:54:36;;;;;;;7.97;6.82;;;15.10;99.90;;;;;;4594043;19;20480;-77
2023/12/20 01:56:11;;;;;;;7.20;6.15;;;15.10;99.90;;;;;;4595362;19;20007;-77
2023/12/20 01:57:47;;;;;;;7.85;5.50;;;15.00;99.90;;;;;;4594399;19;20320;-77
2023/12/20 01:59:21;;;;;;;9.52;6.70;;;15.10;99.90;;;;;;4595667;19;20002;-77
2023/12/20 02:00:55;;;;;;;7.53;6.47;;;15.10;99.90;;;;;;4595849;19;20002;-77
2023/12/20 02:02:31;;;;;;;6.35;5.20;;;15.00;99.90;;;;;;4594759;19;20010;-77
2023/12/20 02:04:06;;;;;;;7.45;5.85;;;15.10;99.90;;;;;;4594284;19;20070;-77
2023/12/20 02:05:41;;;;;;;7.38;6.00;;;15.00;99.90;;;;;;4595432;19;20003;-76
2023/12/20 02:07:17;;;;;;;7.82;6.28;;;15.10;99.90;;;;;;4593468;19;20028;-77
2023/12/20 02:08:51;;;;;;;6.32;5.40;;;15.00;99.90;;;;;;4594065;19;20070;-77
2023/12/20 02:10:25;;;;;;;6.53;5.25;;;15.00;99.90;;;;;;4594067;19;20007;-77
2023/12/20 02:12:01;;;;;;;7.60;6.15;;;15.00;99.90;;;;;;4594415;19;20007;-77
2023/12/20 02:13:35;;;;;;;6.53;5.15;;;15.00;99.90;;;;;;4595066;19;19998;-77
2023/12/20 02:15:09;;;;;;;6.95;5.90;;;15.00;99.90;;;;;;4594167;19;20367;-77
2023/12/20 02:16:46;;;;;;;6.95;5.57;;;15.00;99.90;;;;;;4593735;19;20324;-77
2023/12/20 02:18:20;;;;;;;6.15;5.15;;;15.00;99.90;;;;;;4593999;19;20014;-77
2023/12/20 02:19:54;;;;;;;6.63;5.38;;;15.00;99.90;;;;;;4594859;19;20025;-77
2023/12/20 02:21:36;;;;;;;7.32;6.25;;;15.00;99.90;;;;;;4594687;19;20078;-77
2023/12/20 02:23:10;;;;;;;6.28;5.68;;;15.00;99.90;;;;;;4594894;19;20321;-77
2023/12/20 02:24:44;;;;;;;7.95;6.15;;;15.00;99.90;;;;;;4595164;19;19999;-77
2023/12/20 02:26:19;;;;;;;6.35;5.30;;;15.00;99.90;;;;;;4595086;19;20016;-77
2023/12/20 02:27:54;;;;;;;6.82;6.13;;;15.00;99.90;;;;;;4593729;19;20006;-77
2023/12/20 02:29:28;;;;;;;6.50;5.80;;;15.00;99.90;;;;;;4593689;19;20003;-77
2023/12/20 02:31:03;;;;;;;7.32;6.50;;;15.00;99.90;;;;;;4594807;19;20026;-77
2023/12/20 02:32:37;;;;;;;8.05;7.25;;;15.00;99.90;;;;;;4594938;19;20014;-77
2023/12/20 02:34:11;;;;;;;9.85;8.52;;;15.00;99.90;;;;;;4595060;19;20384;-78
2023/12/20 02:35:47;;;;;;;10.35;8.50;;;15.00;99.90;;;;;;4595181;19;20024;-77
2023/12/20 02:37:21;;;;;;;8.30;7.50;;;15.00;99.90;;;;;;4594067;19;20003;-77
2023/12/20 02:38:55;;;;;;;8.32;6.65;;;15.00;99.90;;;;;;4595059;19;19998;-77
2023/12/20 02:40:31;;;;;;;7.30;6.35;;;15.00;99.90;;;;;;4595139;19;20013;-77
2023/12/20 02:42:06;;;;;;;7.88;5.97;;;15.00;99.90;;;;;;4593347;19;20011;-77
2023/12/20 02:43:39;;;;;;;7.85;6.93;;;15.00;99.90;;;;;;4594392;19;20023;-77
2023/12/20 02:45:26;;;;;;;10.07;7.43;;;15.00;99.90;;;;;;4594959;19;20013;-77
2023/12/20 02:47:01;;;;;;;10.35;7.40;;;15.00;99.90;;;;;;4592908;19;20015;-78
2023/12/20 02:48:35;;;;;;;7.80;6.80;;;15.00;99.90;;;;;;4594528;19;20003;-78
2023/12/20 02:50:11;;;;;;;7.80;6.80;;;15.00;99.90;;;;;;4594685;19;20007;-78
2023/12/20 02:51:47;;;;;;;8.85;7.10;;;15.00;99.90;;;;;;4594407;19;20418;-77
2023/12/20 02:53:22;;;;;;;8.43;6.60;;;15.00;99.90;;;;;;4594532;19;19998;-78
2023/12/20 02:54:57;;;;;;;9.38;7.13;;;15.00;99.90;;;;;;4593693;19;20001;-77
2023/12/20 02:56:34;;;;;;;8.80;6.53;;;15.00;99.90;;;;;;4593194;19;20105;-78
2023/12/20 02:58:07;;;;;;;8.00;6.30;;;15.00;99.90;;;;;;4591614;19;20002;-78
2023/12/20 02:59:43;;;;;;;8.00;6.25;;;15.00;99.90;;;;;;4594131;19;20007;-78
2023/12/20 03:01:18;;;;;;;6.55;5.82;;;15.00;99.90;;;;;;4594596;19;20038;-78
2023/12/20 03:02:52;;;;;;;7.28;6.45;;;15.00;99.90;;;;;;4594363;19;19999;-78
2023/12/20 03:04:27;;;;;;;6.80;5.40;;;15.00;99.90;;;;;;4594350;19;20003;-78
2023/12/20 03:06:02;;;;;;;7.88;6.40;;;15.00;99.90;;;;;;4592991;19;20086;-78
2023/12/20 03:07:38;;;;;;;8.23;7.05;;;15.00;99.90;;;;;;4592909;19;20019;-78
2023/12/20 03:09:14;;;;;;;8.52;7.25;;;15.00;99.90;;;;;;4594334;19;20006;-78
2023/12/20 03:10:48;;;;;;;8.70;6.90;;;15.00;99.90;;;;;;4594187;19;19995;-78
2023/12/20 03:12:22;;;;;;;7.78;6.72;;;15.00;99.90;;;;;;4594183;19;20009;-78
2023/12/20 03:13:59;;;;;;;7.50;6.05;;;14.90;99.90;;;;;;4593178;19;20006;-78
2023/12/20 03:15:34;;;;;;;9.82;7.60;;;15.00;99.90;;;;;;4591774;19;20010;-78
2023/12/20 03:17:08;;;;;;;8.18;6.90;;;14.90;99.90;;;;;;4593067;19;20037;-78
2023/12/20 03:18:45;;;;;;;8.85;6.78;;;15.00;99.90;;;;;;4594126;19;20014;-78
2023/12/20 03:20:19;;;;;;;7.18;6.47;;;15.00;99.90;;;;;;4593993;19;20054;-78
2023/12/20 03:21:54;;;;;;;7.72;6.93;;;15.00;99.90;;;;;;4594221;19;20019;-78
2023/12/20 03:23:30;;;;;;;7.72;6.72;;;15.00;99.90;;;;;;4592668;19;20007;-78
2023/12/20 03:25:04;;;;;;;8.77;7.50;;;15.00;99.90;;;;;;4593993;19;20006;-78
2023/12/20 03:26:38;;;;;;;7.80;6.78;;;14.90;99.90;;;;;;4593823;19;20006;-78
2023/12/20 03:28:15;;;;;;;9.20;7.57;;;15.00;99.90;;;;;;4593846;19;19999;-78
2023/12/20 03:29:50;;;;;;;9.38;7.80;;;15.00;99.90;;;;;;4593770;19;20424;-78
2023/12/20 03:31:24;;;;;;;10.32;8.10;;;15.00;99.90;;;;;;4593772;19;20003;-78
2023/12/20 03:33:01;;;;;;;8.68;6.97;;;15.00;99.90;;;;;;4593779;19;20010;-78
2023/12/20 03:34:35;;;;;;;8.05;7.22;;;15.00;99.90;;;;;;4593269;19;20021;-78
2023/12/20 03:36:09;;;;;;;8.90;7.13;;;15.00;99.90;;;;;;4593648;19;20003;-78
2023/12/20 03:37:44;;;;;;;9.07;7.10;;;15.00;99.90;;;;;;4591461;19;20414;-78
2023/12/20 03:39:18;;;;;;;12.85;7.88;;;14.90;99.90;;;;;;4593264;19;20303;-78
2023/12/20 03:40:52;;;;;;;11.57;8.52;;;14.90;99.90;;;;;;4593835;19;20002;-78
2023/12/20 03:42:28;;;;;;;11.38;8.00;;;15.00;99.90;;;;;;4593614;19;20402;-78
2023/12/20 03:44:02;;;;;;;8.68;7.07;;;14.90;99.90;;;;;;4593739;19;20444;-78
2023/12/20 03:45:37;;;;;;;8.13;6.82;;;14.90;99.90;;;;;;4593481;19;19998;-78
2023/12/20 03:47:13;;;;;;;13.27;8.82;;;14.90;99.90;;;;;;4593223;19;20260;-78
2023/12/20 03:48:46;;;;;;;8.10;5.88;;;14.90;99.90;;;;;;4593309;19;19998;-78
2023/12/20 03:50:20;;;;;;;7.70;6.88;;;14.90;99.90;;;;;;4593339;19;20069;-78
2023/12/20 03:51:56;;;;;;;7.25;5.88;;;14.90;99.90;;;;;;4593677;19;20013;-78
2023/12/20 03:53:30;;;;;;;6.97;5.85;;;14.90;99.90;;;;;;4593304;19;20002;-79
2023/12/20 03:55:05;;;;;;;7.38;5.82;;;14.90;99.90;;;;;;4592460;19;20354;-78
2023/12/20 03:56:40;;;;;;;7.25;6.00;;;14.90;99.90;;;;;;4593294;19;20006;-78
2023/12/20 03:58:15;;;;;;;7.07;5.88;;;14.90;99.90;;;;;;4593419;19;19995;-78
2023/12/20 03:59:49;;;;;;;7.88;6.25;;;14.90;99.90;;;;;;4593458;19;19998;-79
2023/12/20 04:01:25;;;;;;;9.75;7.47;;;14.90;99.90;;;;;;4593420;19;20441;-78
2023/12/20 04:03:00;;;;;;;8.85;6.50;;;14.90;99.90;;;;;;4593155;19;20006;-79
2023/12/20 04:04:35;;;;;;;9.45;6.93;;;14.90;99.90;;;;;;4591667;19;20054;-78
2023/12/20 04:06:10;;;;;;;7.82;6.88;;;14.90;99.90;;;;;;4593124;19;20014;-79
2023/12/20 04:07:44;;;;;;;7.20;6.03;;;14.90;99.90;;;;;;4592094;19;20013;-78
2023/12/20 04:09:18;;;;;;;9.15;6.85;;;14.90;99.90;;;;;;4591969;19;20024;-79
2023/12/20 04:10:56;;;;;;;8.63;6.43;;;14.90;99.90;;;;;;4591986;19;20062;-79
2023/12/20 04:12:30;;;;;;;8.80;6.60;;;14.90;99.90;;;;;;4592658;19;20425;-79
2023/12/20 04:14:05;;;;;;;8.65;6.47;;;14.90;99.90;;;;;;4592892;19;20020;-79
2023/12/20 04:15:42;;;;;;;8.63;6.25;;;14.90;99.90;;;;;;4591841;19;20002;-79
2023/12/20 04:17:16;;;;;;;8.13;6.70;;;14.90;99.90;;;;;;4592020;19;20081;-78
2023/12/20 04:18:50;;;;;;;7.40;6.05;;;14.90;99.90;;;;;;4591584;19;20006;-79
2023/12/20 04:20:25;;;;;;;7.25;5.80;;;14.90;99.90;;;;;;4591508;19;20128;-79
2023/12/20 04:22:01;;;;;;;6.80;5.07;;;14.90;99.90;;;;;;4592374;19;20002;-79
2023/12/20 04:23:36;;;;;;;5.30;4.50;;;14.90;99.90;;;;;;4591635;19;20430;-78
2023/12/20 04:25:12;;;;;;;5.75;5.13;;;14.90;99.90;;;;;;4591467;19;20007;-79
2023/12/20 04:26:46;;;;;;;6.97;4.88;;;14.90;99.90;;;;;;4592408;19;20021;-79
2023/12/20 04:28:21;;;;;;;5.28;4.75;;;14.90;99.90;;;;;;4591249;19;20014;-79
2023/12/20 04:29:57;;;;;;;5.30;4.72;;;14.90;99.90;;;;;;4591595;19;20006;-79
2023/12/20 04:31:31;;;;;;;7.38;5.80;;;14.90;99.90;;;;;;4592225;19;20034;-79
2023/12/20 04:33:05;;;;;;;6.72;5.25;;;14.90;99.90;;;;;;4591213;19;20021;-79
2023/12/20 04:34:40;;;;;;;7.50;5.68;;;14.90;99.90;;;;;;4591063;19;20075;-79
2023/12/20 04:36:15;;;;;;;6.45;5.35;;;14.90;99.90;;;;;;4592375;19;20007;-79
2023/12/20 04:37:49;;;;;;;7.55;5.78;;;14.90;99.90;;;;;;4591516;19;20006;-79
2023/12/20 04:39:25;;;;;;;8.40;6.60;;;14.90;99.90;;;;;;4591596;19;20097;-79
2023/12/20 04:40:59;;;;;;;7.13;5.53;;;14.90;99.90;;;;;;4590876;19;20015;-79
2023/12/20 04:42:33;;;;;;;7.25;5.50;;;14.90;99.90;;;;;;4591940;19;20015;-79
2023/12/20 04:44:08;;;;;;;7.95;5.85;;;14.90;99.90;;;;;;4591367;19;20425;-79
2023/12/20 04:45:43;;;;;;;5.53;4.72;;;14.90;99.90;;;;;;4591016;19;20001;-79
2023/12/20 04:47:18;;;;;;;6.65;5.28;;;14.90;99.90;;;;;;4590680;19;20010;-79
2023/12/20 04:48:53;;;;;;;6.10;4.60;;;14.90;99.90;;;;;;4591227;19;20027;-79
2023/12/20 04:50:28;;;;;;;6.15;4.72;;;14.90;99.90;;;;;;4590915;19;20007;-79
2023/12/20 04:52:04;;;;;;;5.22;4.18;;;14.90;99.90;;;;;;4591853;19;20003;-79
2023/12/20 04:53:40;;;;;;;5.18;4.53;;;15.00;99.90;;;;;;4592263;19;20019;-80
2023/12/20 04:55:14;;;;;;;5.30;4.80;;;15.10;99.90;;;;;;4591328;19;20062;-79
2023/12/20 04:56:48;;;;;;;5.63;4.85;;;15.20;99.90;;;;;;4592177;19;20058;-80
2023/12/20 04:58:23;;;;;;;6.07;5.47;;;15.30;99.90;;;;;;4590748;19;20003;-79
2023/12/20 04:59:57;;;;;;;6.25;5.65;;;15.00;99.90;;;;;;4590791;19;20462;-79
2023/12/20 05:01:32;;;;;;;5.82;5.32;;;14.50;99.90;;;;;;4591728;19;20010;-79
2023/12/20 05:03:07;;;;;;;6.05;5.45;;;14.10;99.90;;;;;;4592183;19;20010;-83
2023/12/20 05:04:42;;;;;;;6.88;6.03;;;13.90;99.90;;;;;;4590695;19;20524;-80
2023/12/20 05:06:16;;;;;;;6.78;5.95;;;13.70;99.90;;;;;;4591949;19;20305;-80
2023/12/20 05:07:52;;;;;;;7.65;6.85;;;13.50;99.90;;;;;;4591032;19;20017;-80
2023/12/20 05:09:26;;;;;;;6.63;5.93;;;13.30;99.90;;;;;;4591993;19;20003;-79
2023/12/20 05:11:00;;;;;;;7.35;5.85;;;13.30;99.90;;;;;;4591895;19;20425;-80
2023/12/20 05:12:35;;;;;;;6.75;5.97;;;13.10;99.90;;;;;;4590859;19;20297;-80
2023/12/20 05:14:10;;;;;;;6.63;5.45;;;13.10;99.90;;;;;;4591497;19;19998;-80
2023/12/20 05:15:45;;;;;;;6.50;4.82;;;13.00;99.90;;;;;;4590692;19;20003;-82
2023/12/20 05:17:20;;;;;;;4.87;4.37;;;13.00;99.90;;;;;;4594278;19;20018;-81
2023/12/20 05:18:54;;;;;;;5.27;4.53;;;12.90;99.90;;;;;;4596389;19;20002;-79
2023/12/20 05:20:28;;;;;;;4.93;4.43;;;12.90;99.90;;;;;;4596437;19;20025;-79
2023/12/20 05:22:04;;;;;;;4.80;4.30;;;12.80;99.90;;;;;;4596460;19;20010;-82
2023/12/20 05:23:38;;;;;;;5.10;4.60;;;12.80;99.90;;;;;;4596403;19;20006;-85
2023/12/20 05:25:12;;;;;;;4.20;3.67;;;12.70;99.90;;;;;;4595287;19;20007;-82
2023/12/20 05:26:47;;;;;;;4.53;3.67;;;12.80;99.90;;;;;;4595014;19;20002;-83
2023/12/20 05:28:22;;;;;;;7.13;5.45;;;13.00;99.90;;;;;;4594905;19;20306;-83
2023/12/20 05:29:58;;;;;;;5.38;3.75;;;13.30;99.90;;;;;;4595892;19;20002;-83
2023/12/20 05:31:34;;;;;;;4.70;4.20;;;13.60;99.90;;;;;;4595277;19;20010;-82
2023/12/20 05:33:09;;;;;;;5.38;4.88;;;13.80;99.90;;;;;;4595851;19;20003;-83
2023/12/20 05:34:43;;;;;;;4.97;4.53;;;14.00;99.90;;;;;;4595592;19;20003;-83
2023/12/20 05:36:18;;;;;;;5.68;4.90;;;14.20;99.90;;;;;;4596609;19;20010;-83
2023/12/20 05:37:52;;;;;;;5.63;5.00;;;14.30;99.90;;;;;;4593621;19;20200;-83
2023/12/20 05:39:26;;;;;;;5.28;4.38;;;14.40;99.90;;;;;;4595695;19;20005;-83
2023/12/20 05:41:03;;;;;;;3.83;3.40;;;14.50;99.90;;;;;;4596160;19;20017;-83
2023/12/20 05:42:38;;;;;;;3.63;3.33;;;14.60;99.90;;;;;;4596022;19;20340;-82
2023/12/20 05:44:12;;;;;;;4.57;3.42;;;14.70;99.90;;;;;;4594925;19;20305;-82
2023/12/20 05:45:47;;;;;;;5.05;3.70;;;14.70;99.90;;;;;;4594680;19;20006;-83
2023/12/20 05:47:22;;;;;;;4.40;3.67;;;14.80;99.90;;;;;;4594666;19;20037;-82
2023/12/20 05:48:56;;;;;;;5.63;3.65;;;14.90;99.90;;;;;;4594567;19;20066;-82
2023/12/20 05:50:31;;;;;;;4.82;4.00;;;14.90;99.90;;;;;;4596272;19;19998;-82
2023/12/20 05:52:05;;;;;;;5.78;4.18;;;14.90;99.90;;;;;;4595743;19;20006;-83
2023/12/20 05:53:41;;;;;;;5.32;4.55;;;15.00;99.90;;;;;;4595822;19;20058;-83
2023/12/20 05:55:16;;;;;;;6.10;4.68;;;15.00;99.90;;;;;;4593649;19;20374;-81
2023/12/20 05:56:51;;;;;;;5.13;4.13;;;15.00;99.90;;;;;;4595100;19;20004;-81
2023/12/20 05:58:27;;;;;;;5.20;4.20;;;15.10;99.90;;;;;;4595658;19;19998;-82
2023/12/20 06:00:03;;;;;;;6.20;4.95;;;15.10;99.90;;;;;;4594444;19;20006;-81
2023/12/20 06:01:37;;;;;;;4.75;4.15;;;15.10;99.90;;;;;;4595541;19;20009;-81
2023/12/20 06:03:11;;;;;;;6.35;4.53;;;15.10;99.90;;;;;;4595880;19;20301;-81
2023/12/20 06:04:46;;;;;;;6.15;4.97;;;15.10;99.90;;;;;;4595901;19;20010;-81
2023/12/20 06:06:21;;;;;;;7.13;5.57;;;15.10;99.90;;;;;;4594186;19;20456;-81
2023/12/20 06:08:01;;;;;;;7.95;5.55;;;15.20;99.90;;;;;;4592684;19;20006;-81
2023/12/20 06:09:36;;;;;;;;;;;15.20;99.90;;;;;;4596186;19;20011;-81
2023/12/20 06:11:10;;;;;;;8.00;5.20;;;15.20;99.90;;;;;;4595453;19;19917;-84
2023/12/20 06:12:44;;;;;;;6.53;4.85;;;15.20;99.90;;;;;;4595394;19;19998;-83
2023/12/20 06:14:21;;;;;;;4.97;4.20;;;15.20;99.90;;;;;;4595377;19;20010;-82
2023/12/20 06:15:56;;;;;;;6.55;5.53;;;15.20;99.90;;;;;;4594268;19;20294;-82
2023/12/20 06:17:31;;;;;;;7.20;5.50;;;15.20;99.90;;;;;;4593568;19;20010;-82
2023/12/20 06:19:06;;;;;;;4.28;3.75;;;15.20;99.90;;;;;;4593911;19;20437;-82
2023/12/20 06:20:40;;;;;;;4.32;3.08;;;15.20;99.90;;;;;;4593865;19;20003;-82
2023/12/20 06:22:14;;;;;;;4.32;2.92;;;15.20;99.90;;;;;;4594095;19;20006;-83
2023/12/20 06:23:50;;;;;;;3.70;2.70;;;15.20;99.90;;;;;;4594936;19;20005;-83
2023/12/20 06:25:24;;;;;;;4.32;2.97;;;15.20;99.90;;;;;;4593827;19;20009;-83
2023/12/20 06:26:58;;;;;;;2.97;2.50;;;15.20;99.90;;;;;;4593367;19;20013;-83
2023/12/20 06:28:33;;;;;;;4.53;2.95;;;15.20;99.90;;;;;;4593726;19;20005;-82
2023/12/20 06:30:13;;;;;;;5.55;3.50;;;15.20;99.90;;;;;;4594745;19;20004;-82
2023/12/20 06:31:48;;;;;;;4.80;3.47;;;15.20;99.90;;;;;;4595054;19;20013;-83
2023/12/20 06:33:23;;;;;;;4.55;3.10;;;15.10;99.90;;;;;;4595014;19;20013;-82
2023/12/20 06:34:58;;;;;;;6.63;3.65;;;15.10;99.90;;;;;;4594212;19;20003;-83
2023/12/20 06:36:32;;;;;;;4.80;3.75;;;15.20;99.90;;;;;;4593579;19;20002;-83
2023/12/20 06:38:09;;;;;;;5.85;4.30;;;15.20;99.90;;;;;;4592953;19;20010;-83
2023/12/20 06:39:43;;;;;;;5.68;4.97;;;15.10;99.90;;;;;;4594867;19;20002;-82
2023/12/20 06:41:17;;;;;;;7.35;5.60;;;15.10;99.90;;;;;;4594759;19;20393;-83
2023/12/20 06:42:54;;;;;;;10.52;7.88;;;15.10;99.90;;;;;;4593459;19;20465;-82
2023/12/20 06:44:28;;;;;;;10.98;8.52;;;15.10;99.90;;;;;;4593405;19;20024;-83
2023/12/20 06:46:02;;;;;;;9.90;8.10;;;15.10;99.90;;;;;;4594615;19;20003;-82
2023/12/20 06:47:37;;;;;;;10.63;8.18;;;15.10;99.90;;;;;;4592387;19;20077;-83
2023/12/20 06:49:12;;;;;;;9.55;6.20;;;15.10;99.90;;;;;;4593263;19;20010;-83
2023/12/20 06:50:46;;;;;;;7.50;6.25;;;15.10;99.90;;;;;;4594281;19;20003;-83
2023/12/20 06:52:22;;;;;;;8.80;6.95;;;15.10;99.90;;;;;;4594651;19;20003;-83
2023/12/20 06:53:58;;;;;;;9.82;7.75;;;15.10;99.90;;;;;;4594589;19;20025;-83
2023/12/20 06:55:32;;;;;;;9.32;7.50;;;15.10;99.90;;;;;;4593320;19;20295;-83
2023/12/20 06:57:08;;;;;;;9.15;7.05;;;15.10;99.90;;;;;;4594709;19;20303;-83
2023/12/20 06:58:43;;;;;;;8.70;7.50;;;15.10;99.90;;;;;;4594439;19;20009;-83
2023/12/20 07:00:17;;;;;;;7.57;5.90;;;15.10;99.90;;;;;;4593142;19;20009;-83
2023/12/20 07:01:53;;;;;;;7.25;6.28;;;15.10;99.90;;;;;;4594146;19;20006;-84
2023/12/20 07:03:28;;;;;;;7.60;6.80;;;15.10;99.90;;;;;;4594352;19;20095;-83
2023/12/20 07:05:03;;;;;;;10.27;8.07;;;15.10;99.90;;;;;;4594590;19;19999;-82
2023/12/20 07:06:38;;;;;;;8.52;6.93;;;15.10;99.90;;;;;;4593073;19;20345;-82
2023/12/20 07:08:14;;;;;;;8.40;6.93;;;15.10;99.90;;;;;;4593919;19;20002;-82
2023/12/20 07:09:48;;;;;;;10.45;6.88;;;15.00;99.90;;;;;;4592999;19;20459;-83
2023/12/20 07:11:24;;;;;;;8.60;6.35;;;15.00;99.90;;;;;;4594235;19;20425;-83
2023/12/20 07:12:58;;;;;;;7.25;6.13;;;15.10;99.90;;;;;;4594205;19;20002;-83
2023/12/20 07:14:32;;;;;;;8.68;6.43;;;15.00;99.90;;;;;;4594197;19;20013;-83
2023/12/20 07:16:07;;;;;;;10.18;7.72;;;15.00;99.90;;;;;;4594193;19;20043;-83
2023/12/20 07:17:42;;;;;;;10.85;7.28;;;15.00;99.90;;;;;;4592722;19;20449;-83
2023/12/20 07:19:16;;;;;;;7.90;6.80;;;15.00;99.90;;;;;;4594050;19;20003;-84
2023/12/20 07:20:51;;;;;;;9.40;7.60;;;15.00;99.90;;;;;;4593979;19;20304;-83
2023/12/20 07:22:26;;;;;;;10.38;8.27;;;15.10;99.90;;;;;;4593983;19;19995;-83
2023/12/20 07:24:00;;;;;;;10.80;8.60;;;15.10;99.90;;;;;;4592879;19;20086;-83
2023/12/20 07:25:35;;;;;;;9.40;7.90;;;15.20;99.90;;;;;;4593648;19;20298;-83
2023/12/20 07:27:09;;;;;;;11.02;8.55;;;15.30;99.90;;;;;;4593637;19;20173;-83
2023/12/20 07:28:43;;;;;;;11.15;9.32;;;15.40;99.90;;;;;;4592738;19;20003;-83
2023/12/20 07:30:18;;;;;;;11.25;10.07;;;15.50;99.90;;;;;;4593692;19;19999;-82
2023/12/20 07:31:53;;;;;;;10.85;9.75;;;15.60;99.90;;;;;;4593695;19;20070;-83
2023/12/20 07:33:28;;;;;;;11.07;9.80;;;15.70;99.90;;;;;;4592726;19;20437;-83
2023/12/20 07:35:05;;;;;;;9.77;8.77;;;15.80;99.90;;;;;;4591885;19;20007;-83
2023/12/20 07:36:39;;;;;;;12.57;9.63;;;15.90;99.90;;;;;;4592337;19;20007;-83
2023/12/20 07:38:13;;;;;;;12.68;9.35;;;16.00;99.90;;;;;;4591874;19;20082;-83
2023/12/20 07:39:48;;;;;;;13.02;9.70;;;16.00;99.90;;;;;;4591976;19;20027;-83
2023/12/20 07:41:23;;;;;;;10.65;9.25;;;16.10;99.90;;;;;;4593576;19;20025;-83
2023/12/20 07:42:58;;;;;;;10.98;9.07;;;16.20;99.90;;;;;;4591959;19;20014;-82
2023/12/20 07:44:35;;;;;;;12.10;9.25;;;16.20;99.90;;;;;;4592262;19;20010;-82
2023/12/20 07:46:10;;;;;;;11.88;9.55;;;16.30;99.90;;;;;;4593484;19;20006;-82
2023/12/20 07:47:44;;;;;;;10.60;8.52;;;16.40;99.90;;;;;;4592489;19;20003;-83
2023/12/20 07:49:21;;;;;;;10.23;8.50;;;16.40;99.90;;;;;;4593707;19;20010;-83
2023/12/20 07:50:56;;;;;;;9.98;8.23;;;16.50;99.90;;;;;;4593589;19;20425;-83
2023/12/20 07:52:33;;;;;;;10.52;8.82;;;16.50;99.90;;;;;;4593296;19;20007;-76
2023/12/20 07:54:08;;;;;;;10.45;8.57;;;16.50;99.90;;;;;;4592474;19;20011;-84
2023/12/20 07:55:42;;;;;;;8.82;7.90;;;16.50;99.90;;;;;;4591956;19;20003;-82
2023/12/20 07:57:17;;;;;;;8.57;7.70;;;16.50;99.90;;;;;;4592601;19;20422;-79
2023/12/20 07:58:53;;;;;;;9.10;7.22;;;16.50;99.90;;;;;;4593189;19;20014;-80
2023/12/20 08:00:27;;;;;;;8.98;7.50;;;16.50;99.90;;;;;;4591859;19;20003;-79
2023/12/20 08:02:01;;;;;;;8.70;7.53;;;16.50;99.90;;;;;;4592118;19;19998;-79
2023/12/20 08:03:36;;;;;;;9.98;7.75;;;16.50;99.90;;;;;;4592121;19;20006;-79
2023/12/20 08:05:10;;;;;;;8.05;6.25;;;16.50;99.90;;;;;;4591667;19;20026;-82
2023/12/20 08:06:44;;;;;;;9.23;6.40;;;16.40;99.90;;;;;;4592500;19;20002;-82
2023/12/20 08:08:22;;;;;;;7.43;6.00;;;16.40;99.90;;;;;;4593143;19;19999;-85
2023/12/20 08:09:57;;;;;;;14.70;7.05;;;16.40;99.90;;;;;;4592873;19;20017;-86
2023/12/20 08:11:31;;;;;;;8.75;6.43;;;16.30;99.90;;;;;;4591910;19;20062;-80
2023/12/20 08:13:07;;;;;;;8.07;6.43;;;16.30;99.90;;;;;;4592620;19;20429;-83
2023/12/20 08:14:42;;;;;;;8.02;6.80;;;16.30;99.90;;;;;;4592895;19;20448;-84
2023/12/20 08:16:17;;;;;;;8.48;6.63;;;16.30;99.90;;;;;;4592848;19;20005;-80
2023/12/20 08:17:53;;;;;;;9.57;7.72;;;16.20;99.90;;;;;;4590279;19;20015;-80
2023/12/20 08:19:28;;;;;;;9.10;7.05;;;16.20;99.90;;;;;;4592688;19;20002;-80
2023/12/20 08:21:03;;;;;;;7.78;6.55;;;16.20;99.90;;;;;;4593048;19;20426;-79
2023/12/20 08:22:38;;;;;;;8.27;6.75;;;16.10;99.90;;;;;;4591509;19;20090;-76
2023/12/20 08:24:12;;;;;;;7.68;6.70;;;16.10;99.90;;;;;;4592981;19;20020;-78
2023/12/20 08:25:46;;;;;;;9.55;6.88;;;16.00;99.90;;;;;;4593454;19;19998;-77
2023/12/20 08:27:22;;;;;;;10.35;8.13;;;16.00;99.90;;;;;;4592874;19;20509;-78
2023/12/20 08:28:59;;;;;;;15.18;10.93;;;16.00;99.90;;;;;;4592167;19;20014;-79
2023/12/20 08:30:33;;;;;;;12.57;10.18;;;16.00;99.90;;;;;;4593160;19;20037;-79